• Join FlightAware (Why Join?)
  • Login
  • US Flag 
01:28PM EDT


 

Airport Tracker/Info


-or-


 

Live Flight TrackerFlight Track Log ✈ SWA214 ✈ 01-May-2012 ✈ KDAL - KMCI

Flight Track Log - Related Links

Times and Time Zones

All times are in EDT time to prevent confusion due to time zone crossing. See the SWA214 flight status page for this flight to view local times or setup timezone preferences in your user account.

Time Position Orientation Groundspeed Altitude Reporting Facility
EDT Latitude Longitude Course Direction KTS MPH feet Rate Location/Type
08:17PM 32.8286 -96.8364 128° Southeast 161 185 1,400  Level FAA TRACON SMA TRACON (SMA)
08:18PM 32.8075 -96.8044 128° Southeast 184 212 2,800 2,460 Climbing FAA TRACON SMA TRACON (SMA)
08:18PM 32.7822 -96.7664 67° East 215 247 4,800 2,820 Climbing FAA TRACON SMA TRACON (SMA)
08:19PM 32.7969 -96.7247 North 257 296 6,600 2,700 Climbing FAA TRACON SMA TRACON (SMA)
08:20PM 32.8508 -96.7153 North 288 331 8,400 3,000 Climbing FAA TRACON SMA TRACON (SMA)
08:20PM 32.9053 -96.7122 331° Northwest 287 330 10,600 2,160 Climbing FAA TRACON SMA TRACON (SMA)
08:21PM 32.9522 -96.7433 329° Northwest 316 364 11,300 2,160 Climbing FAA TRACON SMA TRACON (SMA)
08:22PM 33.0075 -96.7822 329° Northwest 333 383 13,500 2,820 Climbing FAA TRACON SMA TRACON (SMA)
08:22PM 33.0633 -96.8222 329° Northwest 338 389 15,100 2,100 Climbing FAA TRACON SMA TRACON (SMA)
08:23PM 33.1156 -96.8603 336° Northwest 356 410 16,400 2,340 Climbing FAA TRACON SMA TRACON (SMA)
08:24PM 33.1794 -96.8939 10° North 372 428 18,200 2,580 Climbing FAA TRACON SMA TRACON (SMA)
08:24PM 33.2514 -96.8789 13° North 379 436 19,800 2,220 Climbing FAA TRACON SMA TRACON (SMA)
08:25PM 33.3233 -96.8589 13° North 384 442 21,300 1,980 Climbing FAA TRACON SMA TRACON (SMA)
08:26PM 33.3886 -96.8414 13° North 390 449 22,500 1,800 Climbing FAA TRACON SMA TRACON (SMA)
08:26PM 33.4633 -96.8208 12° North 397 457 23,700 1,620 Climbing FAA TRACON SMA TRACON (SMA)
08:27PM 33.5314 -96.8031 13° North 408 470 24,700 1,440 Climbing FAA TRACON SMA TRACON (SMA)
08:28PM 33.6097 -96.7814 13° North 418 481 25,700 1,440 Climbing FAA TRACON SMA TRACON (SMA)
08:28PM 33.6894 -96.7589 11° North 424 488 26,700 1,200 Climbing FAA TRACON SMA TRACON (SMA)
08:29PM 33.7628 -96.7411 14° North 438 504 27,300 1,080 Climbing FAA TRACON SMA TRACON (SMA)
08:30PM 33.8472 -96.7164 15° North 450 518 28,200 1,320 Climbing FAA TRACON SMA TRACON (SMA)
08:31PM 33.9564 -96.6822 12° North 439 505 29,400 1,500 Climbing Fort Worth Center
08:32PM 34.0772 -96.6511 14° North 449 517 31,000 1,500 Climbing Fort Worth Center
08:33PM 34.1939 -96.6150 13° North 436 502 32,500 1,140 Climbing Fort Worth Center
08:34PM 34.3147 -96.5811 14° North 436 502 33,300 900 Climbing Fort Worth Center
08:35PM 34.4394 -96.5422 13° North 441 507 34,300 960 Climbing Fort Worth Center
08:36PM 34.5644 -96.5083 13° North 448 516 35,300 1,080 Climbing Fort Worth Center
08:37PM 34.6853 -96.4742 14° North 448 516 36,500 840 Climbing Fort Worth Center
08:38PM 34.7831 -96.4453 14° North 448 516 37,000 240 Climbing Fort Worth Center
08:39PM 34.9161 -96.4058 13° North 448 516 37,000  Level Fort Worth Center
08:40PM 35.0369 -96.3714 14° North 448 516 37,000  Level Fort Worth Center
08:41PM 35.1575 -96.3342 13° North 448 516 37,000  Level Fort Worth Center
08:42PM 35.2803 -96.2997 14° North 448 516 37,000  Level Fort Worth Center
08:43PM 35.4742 -96.2403 13° North 455 524 37,000  Level Kansas City Center
08:44PM 35.5936 -96.2072 13° North 450 518 37,000  Level Kansas City Center
08:45PM 35.7089 -96.1739 13° North 438 504 37,000  Level Kansas City Center
08:46PM 35.8389 -96.1381 13° North 431 496 37,000  Level Kansas City Center
08:47PM 35.9539 -96.1047 14° North 431 496 37,000  Level Kansas City Center
08:48PM 36.0714 -96.0683 13° North 431 496 37,000  Level Kansas City Center
08:49PM 36.1864 -96.0347 13° North 431 496 37,000  Level Kansas City Center
08:50PM 36.2892 -96.0058 14° North 426 490 37,000  Level Kansas City Center
08:51PM 36.4044 -95.9692 13° North 426 490 37,000  Level Kansas City Center
08:52PM 36.5194 -95.9353 15° North 421 484 37,000  Level Kansas City Center
08:53PM 36.6325 -95.8986 13° North 416 479 37,000  Level Kansas City Center
08:54PM 36.7478 -95.8644 15° North 416 479 37,000  Level Kansas City Center
08:55PM 36.8586 -95.8272 12° North 416 479 37,000  Level Kansas City Center
08:56PM 36.9739 -95.7956 14° North 416 479 37,000  Level Kansas City Center
08:57PM 37.0869 -95.7608 14° North 416 479 37,000  Level Kansas City Center
08:58PM 37.1997 -95.7264 15° North 416 479 37,000  Level Kansas City Center
08:59PM 37.3108 -95.6889 14° North 416 479 37,000  Level Kansas City Center
09:00PM 37.4236 -95.6542 15° North 411 473 37,000  Level Kansas City Center
09:01PM 37.5367 -95.6164 12° North 411 473 37,000 -240 Level Kansas City Center
09:02PM 37.6475 -95.5867 North 411 473 36,600 -720 Descending Kansas City Center
09:03PM 37.7750 -95.5700 North 411 473 35,600 -960 Descending Kansas City Center
09:04PM 37.8897 -95.5481 North 411 473 34,700 -900 Descending Kansas City Center
09:05PM 37.9942 -95.5417 North 405 466 33,800 -1,020 Descending Kansas City Center
09:06PM 38.1258 -95.5197 North 421 484 32,700 -1,440 Descending Kansas City Center
09:07PM 38.2508 -95.5108 North 435 501 31,000 -2,340 Descending Kansas City Center
09:08PM 38.3617 -95.4911 20° North 447 514 28,100 -3,240 Descending Kansas City Center
09:09PM 38.4808 -95.4369 25° Northeast 447 514 24,600 -3,180 Descending Kansas City Center
09:10PM 38.6067 -95.3614 26° Northeast 447 514 21,800 -2,700 Descending Kansas City Center
09:11PM 38.7133 -95.2936 36° Northeast 437 503 19,200 -2,940 Descending Kansas City Center
09:12PM 38.7994 -95.2144 32° Northeast 422 486 16,000 -3,120 Descending Kansas City Center
09:13PM 38.9083 -95.1275 27° Northeast 416 479 13,000 -2,100 Descending Kansas City Center
09:14PM 39.0044 -95.0642 24° Northeast 394 453 11,900 -1,140 Descending Kansas City Center
09:15PM 39.0817 -95.0194 27° Northeast 353 406 10,800 -1,080 Descending Kansas City Center
09:16PM 39.1592 -94.9692 26° Northeast 321 369 9,800 -1,140 Descending Kansas City Center
09:17PM 39.2428 -94.9161 25° Northeast 304 350 8,600 -1,200 Descending Kansas City Center
09:18PM 39.3136 -94.8736 26° Northeast 292 336 7,400 -1,260 Descending Kansas City Center
09:19PM 39.3783 -94.8336 45° Northeast 279 321 6,100 -1,380 Descending Kansas City Center
09:20PM 39.4369 -94.7586 124° Southeast 279 321 4,700 -1,500 Descending Kansas City Center
09:21PM 39.4058 -94.6994 165° South 170 196 3,200 -1,260 Descending Kansas City Center
09:22PM 39.3600 -94.6831 198° South 150 173 2,200 -900 Descending Kansas City Center
09:23PM 39.3286 -94.6964 183° South 129 148 1,500 -600 Descending Kansas City Center
09:24PM 39.2933 -94.6992 183° South 129 148 1,000 -540 Descending Kansas City Center